sensor_id;sensor_type;location;lat;lon;timestamp;pressure;altitude;pressure_sealevel;temperature;humidity
11329;BME280;5719;42.714;23.732;2024-01-06T00:02:02;94242.38;;;4.11;100.00
11329;BME280;5719;42.714;23.732;2024-01-06T00:04:28;94253.03;;;4.19;100.00
11329;BME280;5719;42.714;23.732;2024-01-06T00:06:55;94241.88;;;4.20;100.00
11329;BME280;5719;42.714;23.732;2024-01-06T00:09:22;94241.41;;;4.29;100.00
11329;BME280;5719;42.714;23.732;2024-01-06T00:11:49;94240.91;;;4.22;99.91
11329;BME280;5719;42.714;23.732;2024-01-06T00:14:18;94233.41;;;4.02;100.00
11329;BME280;5719;42.714;23.732;2024-01-06T00:16:45;94243.38;;;4.24;99.84
11329;BME280;5719;42.714;23.732;2024-01-06T00:19:13;94237.72;;;4.34;99.60
11329;BME280;5719;42.714;23.732;2024-01-06T00:21:41;94245.22;;;4.05;100.00
11329;BME280;5719;42.714;23.732;2024-01-06T00:24:08;94238.16;;;4.10;100.00
11329;BME280;5719;42.714;23.732;2024-01-06T00:26:35;94242.66;;;4.22;100.00
11329;BME280;5719;42.714;23.732;2024-01-06T00:29:02;94247.72;;;3.55;100.00
11329;BME280;5719;42.714;23.732;2024-01-06T00:31:29;94253.66;;;3.72;100.00
11329;BME280;5719;42.714;23.732;2024-01-06T00:33:56;94239.06;;;3.91;100.00
11329;BME280;5719;42.714;23.732;2024-01-06T00:36:24;94234.97;;;4.05;100.00
11329;BME280;5719;42.714;23.732;2024-01-06T00:38:51;94222.72;;;4.11;100.00
11329;BME280;5719;42.714;23.732;2024-01-06T00:41:17;94221.41;;;4.20;100.00
11329;BME280;5719;42.714;23.732;2024-01-06T00:43:44;94237.38;;;4.25;99.56
11329;BME280;5719;42.714;23.732;2024-01-06T00:46:11;94231.03;;;4.32;98.98
11329;BME280;5719;42.714;23.732;2024-01-06T00:48:38;94205.88;;;4.40;98.45
11329;BME280;5719;42.714;23.732;2024-01-06T00:51:05;94222.78;;;4.42;97.50
11329;BME280;5719;42.714;23.732;2024-01-06T00:53:33;94204.22;;;4.39;96.73
11329;BME280;5719;42.714;23.732;2024-01-06T00:56:00;94208.09;;;4.46;96.42
11329;BME280;5719;42.714;23.732;2024-01-06T00:58:27;94206.28;;;4.48;96.09
11329;BME280;5719;42.714;23.732;2024-01-06T01:00:53;94204.31;;;4.53;95.46
11329;BME280;5719;42.714;23.732;2024-01-06T01:03:20;94217.88;;;4.55;95.33
11329;BME280;5719;42.714;23.732;2024-01-06T01:05:47;94236.44;;;3.76;98.81
11329;BME280;5719;42.714;23.732;2024-01-06T01:08:14;94249.00;;;3.63;100.00
11329;BME280;5719;42.714;23.732;2024-01-06T01:10:42;94252.41;;;3.81;99.80
11329;BME280;5719;42.714;23.732;2024-01-06T01:13:10;94238.34;;;3.89;99.49
11329;BME280;5719;42.714;23.732;2024-01-06T01:15:37;94233.97;;;3.91;99.01
11329;BME280;5719;42.714;23.732;2024-01-06T01:18:04;94240.28;;;3.84;99.83
11329;BME280;5719;42.714;23.732;2024-01-06T01:20:31;94248.13;;;3.81;100.00
11329;BME280;5719;42.714;23.732;2024-01-06T01:22:57;94234.69;;;3.93;100.00
11329;BME280;5719;42.714;23.732;2024-01-06T01:25:24;94247.09;;;4.01;99.33
11329;BME280;5719;42.714;23.732;2024-01-06T01:27:52;94247.25;;;3.98;98.06
11329;BME280;5719;42.714;23.732;2024-01-06T01:30:19;94251.72;;;3.60;98.24
11329;BME280;5719;42.714;23.732;2024-01-06T01:32:46;94251.38;;;3.32;100.00
11329;BME280;5719;42.714;23.732;2024-01-06T01:35:12;94244.25;;;3.03;100.00
11329;BME280;5719;42.714;23.732;2024-01-06T01:37:39;94247.31;;;2.92;100.00
11329;BME280;5719;42.714;23.732;2024-01-06T01:40:07;94254.09;;;2.93;100.00
11329;BME280;5719;42.714;23.732;2024-01-06T01:42:34;94249.81;;;2.93;100.00
11329;BME280;5719;42.714;23.732;2024-01-06T01:45:03;94246.56;;;2.90;100.00
11329;BME280;5719;42.714;23.732;2024-01-06T01:47:29;94250.13;;;3.05;100.00
11329;BME280;5719;42.714;23.732;2024-01-06T01:49:57;94242.09;;;3.31;100.00
11329;BME280;5719;42.714;23.732;2024-01-06T01:52:24;94236.97;;;3.48;100.00
11329;BME280;5719;42.714;23.732;2024-01-06T01:54:51;94224.28;;;3.64;100.00
11329;BME280;5719;42.714;23.732;2024-01-06T01:57:20;94226.75;;;3.65;100.00
11329;BME280;5719;42.714;23.732;2024-01-06T01:59:50;94216.97;;;3.73;100.00
11329;BME280;5719;42.714;23.732;2024-01-06T02:02:19;94212.91;;;3.69;99.65
11329;BME280;5719;42.714;23.732;2024-01-06T02:04:47;94210.03;;;3.75;98.41
11329;BME280;5719;42.714;23.732;2024-01-06T02:07:14;94197.13;;;3.78;97.31
11329;BME280;5719;42.714;23.732;2024-01-06T02:09:40;94205.69;;;3.77;96.68
11329;BME280;5719;42.714;23.732;2024-01-06T02:12:07;94202.25;;;3.78;96.68
11329;BME280;5719;42.714;23.732;2024-01-06T02:14:34;94210.66;;;3.80;96.07
11329;BME280;5719;42.714;23.732;2024-01-06T02:17:01;94202.16;;;3.80;96.05
11329;BME280;5719;42.714;23.732;2024-01-06T02:19:29;94195.31;;;3.80;95.44
11329;BME280;5719;42.714;23.732;2024-01-06T02:21:57;94202.97;;;3.80;95.70
11329;BME280;5719;42.714;23.732;2024-01-06T02:24:24;94204.56;;;3.83;96.23
11329;BME280;5719;42.714;23.732;2024-01-06T02:26:51;94207.88;;;3.85;96.42
11329;BME280;5719;42.714;23.732;2024-01-06T02:29:17;94194.03;;;3.89;96.42
11329;BME280;5719;42.714;23.732;2024-01-06T02:31:44;94194.03;;;3.89;95.91
11329;BME280;5719;42.714;23.732;2024-01-06T02:34:11;94193.03;;;3.91;96.24
11329;BME280;5719;42.714;23.732;2024-01-06T02:36:38;94197.94;;;3.96;96.28
11329;BME280;5719;42.714;23.732;2024-01-06T02:39:06;94200.41;;;3.97;95.88
11329;BME280;5719;42.714;23.732;2024-01-06T02:41:33;94174.81;;;3.97;95.49
11329;BME280;5719;42.714;23.732;2024-01-06T02:43:59;94170.25;;;3.87;95.65
11329;BME280;5719;42.714;23.732;2024-01-06T02:46:28;94191.06;;;3.29;97.19
11329;BME280;5719;42.714;23.732;2024-01-06T02:48:55;94182.56;;;3.29;97.52
11329;BME280;5719;42.714;23.732;2024-01-06T02:51:21;94170.97;;;3.39;97.06
11329;BME280;5719;42.714;23.732;2024-01-06T02:53:48;94153.88;;;3.41;96.43
11329;BME280;5719;42.714;23.732;2024-01-06T02:56:16;94144.25;;;3.46;96.33
11329;BME280;5719;42.714;23.732;2024-01-06T02:58:43;94147.78;;;3.26;98.48
11329;BME280;5719;42.714;23.732;2024-01-06T03:01:11;94150.31;;;2.92;100.00
11329;BME280;5719;42.714;23.732;2024-01-06T03:03:38;94140.94;;;3.10;100.00
11329;BME280;5719;42.714;23.732;2024-01-06T03:06:05;94139.50;;;3.21;99.88
11329;BME280;5719;42.714;23.732;2024-01-06T03:08:32;94128.03;;;3.30;100.00
11329;BME280;5719;42.714;23.732;2024-01-06T03:11:00;94131.78;;;3.23;99.63
11329;BME280;5719;42.714;23.732;2024-01-06T03:13:28;94126.66;;;3.23;99.48
11329;BME280;5719;42.714;23.732;2024-01-06T03:15:55;94122.94;;;3.13;99.87
11329;BME280;5719;42.714;23.732;2024-01-06T03:18:22;94111.50;;;3.20;100.00
11329;BME280;5719;42.714;23.732;2024-01-06T03:20:49;94103.41;;;2.94;100.00
11329;BME280;5719;42.714;23.732;2024-01-06T03:23:15;94097.47;;;2.77;100.00
11329;BME280;5719;42.714;23.732;2024-01-06T03:25:42;94110.69;;;2.66;100.00
11329;BME280;5719;42.714;23.732;2024-01-06T03:28:09;94114.88;;;2.86;100.00
11329;BME280;5719;42.714;23.732;2024-01-06T03:30:37;94119.00;;;2.88;100.00
11329;BME280;5719;42.714;23.732;2024-01-06T03:33:05;94118.78;;;2.93;100.00
11329;BME280;5719;42.714;23.732;2024-01-06T03:35:32;94114.59;;;3.09;100.00
11329;BME280;5719;42.714;23.732;2024-01-06T03:37:58;94120.22;;;3.16;100.00
11329;BME280;5719;42.714;23.732;2024-01-06T03:40:25;94110.69;;;3.19;100.00
11329;BME280;5719;42.714;23.732;2024-01-06T03:42:52;94110.34;;;3.25;100.00
11329;BME280;5719;42.714;23.732;2024-01-06T03:45:19;94112.53;;;3.33;100.00
11329;BME280;5719;42.714;23.732;2024-01-06T03:47:47;94117.34;;;3.39;100.00
11329;BME280;5719;42.714;23.732;2024-01-06T03:50:14;94116.38;;;3.41;100.00
11329;BME280;5719;42.714;23.732;2024-01-06T03:52:41;94112.66;;;3.47;100.00
11329;BME280;5719;42.714;23.732;2024-01-06T03:55:08;94117.50;;;3.53;100.00
11329;BME280;5719;42.714;23.732;2024-01-06T03:57:35;94116.41;;;3.57;100.00
11329;BME280;5719;42.714;23.732;2024-01-06T04:00:02;94115.44;;;3.60;100.00
11329;BME280;5719;42.714;23.732;2024-01-06T04:02:29;94126.25;;;3.65;100.00
11329;BME280;5719;42.714;23.732;2024-01-06T04:04:57;94119.34;;;3.67;99.94
11329;BME280;5719;42.714;23.732;2024-01-06T04:07:24;94119.41;;;3.65;99.87
11329;BME280;5719;42.714;23.732;2024-01-06T04:09:51;94120.16;;;3.67;99.25
11329;BME280;5719;42.714;23.732;2024-01-06T04:12:18;94126.91;;;3.68;99.26
11329;BME280;5719;42.714;23.732;2024-01-06T04:14:44;94131.44;;;3.63;98.65
11329;BME280;5719;42.714;23.732;2024-01-06T04:17:11;94127.84;;;3.67;98.49
11329;BME280;5719;42.714;23.732;2024-01-06T04:19:38;94128.00;;;3.64;98.43
11329;BME280;5719;42.714;23.732;2024-01-06T04:22:06;94121.78;;;3.53;98.45
11329;BME280;5719;42.714;23.732;2024-01-06T04:24:33;94117.25;;;3.40;99.29
11329;BME280;5719;42.714;23.732;2024-01-06T04:27:03;94128.53;;;3.36;99.90
11329;BME280;5719;42.714;23.732;2024-01-06T04:29:29;94129.97;;;3.25;100.00
11329;BME280;5719;42.714;23.732;2024-01-06T04:31:57;94130.56;;;3.30;100.00
11329;BME280;5719;42.714;23.732;2024-01-06T04:34:24;94120.97;;;3.35;100.00
11329;BME280;5719;42.714;23.732;2024-01-06T04:36:51;94119.63;;;3.28;100.00
11329;BME280;5719;42.714;23.732;2024-01-06T04:39:19;94118.47;;;3.33;100.00
11329;BME280;5719;42.714;23.732;2024-01-06T04:41:46;94105.63;;;3.35;100.00
11329;BME280;5719;42.714;23.732;2024-01-06T04:44:13;94106.41;;;3.20;100.00
11329;BME280;5719;42.714;23.732;2024-01-06T04:46:40;94111.41;;;3.21;100.00
11329;BME280;5719;42.714;23.732;2024-01-06T04:49:06;94117.50;;;3.02;100.00
11329;BME280;5719;42.714;23.732;2024-01-06T04:51:35;94109.59;;;3.06;100.00
11329;BME280;5719;42.714;23.732;2024-01-06T04:54:02;94101.72;;;3.11;100.00
11329;BME280;5719;42.714;23.732;2024-01-06T04:56:30;94113.44;;;3.15;100.00
11329;BME280;5719;42.714;23.732;2024-01-06T04:58:57;94110.06;;;3.14;100.00
11329;BME280;5719;42.714;23.732;2024-01-06T05:01:24;94128.72;;;3.16;100.00
11329;BME280;5719;42.714;23.732;2024-01-06T05:03:50;94126.69;;;3.06;100.00
11329;BME280;5719;42.714;23.732;2024-01-06T05:06:17;94113.09;;;3.05;100.00
11329;BME280;5719;42.714;23.732;2024-01-06T05:08:44;94114.66;;;2.90;100.00
11329;BME280;5719;42.714;23.732;2024-01-06T05:11:12;94116.00;;;2.97;100.00
11329;BME280;5719;42.714;23.732;2024-01-06T05:13:40;94115.75;;;2.85;100.00
11329;BME280;5719;42.714;23.732;2024-01-06T05:16:07;94117.13;;;2.92;100.00
11329;BME280;5719;42.714;23.732;2024-01-06T05:18:35;94114.88;;;3.03;100.00
11329;BME280;5719;42.714;23.732;2024-01-06T05:21:02;94115.38;;;3.10;100.00
11329;BME280;5719;42.714;23.732;2024-01-06T05:23:29;94110.22;;;2.94;100.00
11329;BME280;5719;42.714;23.732;2024-01-06T05:25:56;94117.41;;;2.69;100.00
11329;BME280;5719;42.714;23.732;2024-01-06T05:28:22;94126.56;;;2.73;100.00
11329;BME280;5719;42.714;23.732;2024-01-06T05:30:51;94137.06;;;2.67;100.00
11329;BME280;5719;42.714;23.732;2024-01-06T05:33:17;94126.94;;;2.82;100.00
11329;BME280;5719;42.714;23.732;2024-01-06T05:35:44;94122.22;;;2.92;100.00
11329;BME280;5719;42.714;23.732;2024-01-06T05:38:11;94115.34;;;2.94;100.00
11329;BME280;5719;42.714;23.732;2024-01-06T05:40:38;94106.47;;;3.01;100.00
11329;BME280;5719;42.714;23.732;2024-01-06T05:43:04;94104.59;;;3.05;100.00
11329;BME280;5719;42.714;23.732;2024-01-06T05:45:31;94106.00;;;3.10;100.00
11329;BME280;5719;42.714;23.732;2024-01-06T05:48:00;94115.13;;;2.99;100.00
11329;BME280;5719;42.714;23.732;2024-01-06T05:50:27;94102.03;;;3.05;100.00
11329;BME280;5719;42.714;23.732;2024-01-06T05:52:53;94116.91;;;2.96;100.00
11329;BME280;5719;42.714;23.732;2024-01-06T05:55:20;94123.66;;;2.80;100.00
11329;BME280;5719;42.714;23.732;2024-01-06T05:57:47;94111.34;;;2.88;100.00
11329;BME280;5719;42.714;23.732;2024-01-06T06:00:15;94106.84;;;2.93;100.00
11329;BME280;5719;42.714;23.732;2024-01-06T06:02:42;94111.78;;;2.96;100.00
11329;BME280;5719;42.714;23.732;2024-01-06T06:05:11;94106.00;;;2.93;100.00
11329;BME280;5719;42.714;23.732;2024-01-06T06:07:38;94099.25;;;2.92;100.00
11329;BME280;5719;42.714;23.732;2024-01-06T06:10:07;94087.78;;;2.83;100.00
11329;BME280;5719;42.714;23.732;2024-01-06T06:12:34;94080.53;;;2.74;100.00
11329;BME280;5719;42.714;23.732;2024-01-06T06:15:05;94083.19;;;2.37;100.00
11329;BME280;5719;42.714;23.732;2024-01-06T06:17:32;94087.66;;;2.51;100.00
11329;BME280;5719;42.714;23.732;2024-01-06T06:19:58;94078.66;;;2.61;100.00
11329;BME280;5719;42.714;23.732;2024-01-06T06:22:27;94088.91;;;2.42;100.00
11329;BME280;5719;42.714;23.732;2024-01-06T06:24:55;94087.38;;;2.38;100.00
11329;BME280;5719;42.714;23.732;2024-01-06T06:27:22;94087.16;;;2.25;100.00
11329;BME280;5719;42.714;23.732;2024-01-06T06:29:49;94080.06;;;2.13;100.00
11329;BME280;5719;42.714;23.732;2024-01-06T06:32:16;94089.44;;;2.13;100.00
11329;BME280;5719;42.714;23.732;2024-01-06T06:34:43;94088.50;;;1.96;100.00
11329;BME280;5719;42.714;23.732;2024-01-06T06:37:10;94078.94;;;2.19;100.00
11329;BME280;5719;42.714;23.732;2024-01-06T06:39:37;94090.78;;;1.82;100.00
11329;BME280;5719;42.714;23.732;2024-01-06T06:42:04;94085.94;;;1.96;100.00
11329;BME280;5719;42.714;23.732;2024-01-06T06:44:31;94074.13;;;2.13;100.00
11329;BME280;5719;42.714;23.732;2024-01-06T06:46:58;94071.69;;;1.92;100.00
11329;BME280;5719;42.714;23.732;2024-01-06T06:49:24;94064.06;;;2.10;100.00
11329;BME280;5719;42.714;23.732;2024-01-06T06:51:51;94067.00;;;2.38;100.00
11329;BME280;5719;42.714;23.732;2024-01-06T06:54:18;94068.59;;;2.58;100.00
11329;BME280;5719;42.714;23.732;2024-01-06T06:56:46;94076.78;;;2.81;100.00
11329;BME280;5719;42.714;23.732;2024-01-06T06:59:13;94076.66;;;3.02;100.00
11329;BME280;5719;42.714;23.732;2024-01-06T07:01:40;94076.59;;;3.20;100.00
11329;BME280;5719;42.714;23.732;2024-01-06T07:04:06;94076.72;;;3.34;100.00
11329;BME280;5719;42.714;23.732;2024-01-06T07:06:33;94070.16;;;3.46;100.00
11329;BME280;5719;42.714;23.732;2024-01-06T07:09:00;94074.84;;;3.54;100.00
11329;BME280;5719;42.714;23.732;2024-01-06T07:11:27;94067.78;;;3.59;100.00
11329;BME280;5719;42.714;23.732;2024-01-06T07:13:55;94058.88;;;3.66;100.00
11329;BME280;5719;42.714;23.732;2024-01-06T07:16:22;94059.69;;;3.51;100.00
11329;BME280;5719;42.714;23.732;2024-01-06T07:18:49;94063.50;;;3.59;100.00
11329;BME280;5719;42.714;23.732;2024-01-06T07:21:16;94063.00;;;3.68;100.00
11329;BME280;5719;42.714;23.732;2024-01-06T07:23:42;94065.16;;;3.76;100.00
11329;BME280;5719;42.714;23.732;2024-01-06T07:26:09;94075.31;;;3.77;100.00
11329;BME280;5719;42.714;23.732;2024-01-06T07:28:36;94080.88;;;3.85;100.00
11329;BME280;5719;42.714;23.732;2024-01-06T07:31:04;94088.22;;;3.91;100.00
11329;BME280;5719;42.714;23.732;2024-01-06T07:33:31;94088.31;;;4.06;100.00
11329;BME280;5719;42.714;23.732;2024-01-06T07:35:58;94089.63;;;4.13;100.00
11329;BME280;5719;42.714;23.732;2024-01-06T07:38:25;94088.38;;;4.20;100.00
11329;BME280;5719;42.714;23.732;2024-01-06T07:40:52;94092.59;;;4.21;100.00
11329;BME280;5719;42.714;23.732;2024-01-06T07:43:20;94084.84;;;4.07;100.00
11329;BME280;5719;42.714;23.732;2024-01-06T07:45:46;94068.34;;;3.97;100.00
11329;BME280;5719;42.714;23.732;2024-01-06T07:48:15;94087.34;;;3.75;100.00
11329;BME280;5719;42.714;23.732;2024-01-06T07:50:42;94067.50;;;3.80;100.00
11329;BME280;5719;42.714;23.732;2024-01-06T07:53:08;94069.59;;;3.57;100.00
11329;BME280;5719;42.714;23.732;2024-01-06T07:55:35;94081.72;;;3.36;100.00
11329;BME280;5719;42.714;23.732;2024-01-06T07:58:02;94076.44;;;3.56;100.00
11329;BME280;5719;42.714;23.732;2024-01-06T08:00:29;94077.00;;;3.45;100.00
11329;BME280;5719;42.714;23.732;2024-01-06T08:02:56;94066.50;;;3.67;100.00
11329;BME280;5719;42.714;23.732;2024-01-06T08:05:24;94066.59;;;3.81;100.00
11329;BME280;5719;42.714;23.732;2024-01-06T08:07:51;94067.69;;;3.93;100.00
11329;BME280;5719;42.714;23.732;2024-01-06T08:10:18;94075.44;;;4.07;100.00
11329;BME280;5719;42.714;23.732;2024-01-06T08:12:46;94077.72;;;3.80;100.00
11329;BME280;5719;42.714;23.732;2024-01-06T08:15:13;94069.66;;;4.04;100.00
11329;BME280;5719;42.714;23.732;2024-01-06T08:17:40;94061.50;;;4.13;100.00
11329;BME280;5719;42.714;23.732;2024-01-06T08:20:08;94067.84;;;4.37;100.00
11329;BME280;5719;42.714;23.732;2024-01-06T08:22:37;94078.88;;;4.37;100.00
11329;BME280;5719;42.714;23.732;2024-01-06T08:25:04;94068.06;;;4.48;100.00
11329;BME280;5719;42.714;23.732;2024-01-06T08:27:33;94068.50;;;4.40;100.00
11329;BME280;5719;42.714;23.732;2024-01-06T08:30:00;94072.28;;;4.49;100.00
11329;BME280;5719;42.714;23.732;2024-01-06T08:32:26;94067.06;;;4.66;100.00
11329;BME280;5719;42.714;23.732;2024-01-06T08:34:53;94070.16;;;4.87;100.00
11329;BME280;5719;42.714;23.732;2024-01-06T08:37:20;94065.72;;;5.05;100.00
11329;BME280;5719;42.714;23.732;2024-01-06T08:39:48;94062.47;;;5.17;100.00
11329;BME280;5719;42.714;23.732;2024-01-06T08:42:15;94055.69;;;5.16;100.00
11329;BME280;5719;42.714;23.732;2024-01-06T08:44:42;94047.13;;;5.31;100.00
11329;BME280;5719;42.714;23.732;2024-01-06T08:47:10;94050.31;;;5.20;100.00
11329;BME280;5719;42.714;23.732;2024-01-06T08:49:37;94051.09;;;5.07;100.00
11329;BME280;5719;42.714;23.732;2024-01-06T08:52:05;94045.97;;;5.07;100.00
11329;BME280;5719;42.714;23.732;2024-01-06T08:54:31;94037.34;;;4.93;100.00
11329;BME280;5719;42.714;23.732;2024-01-06T08:57:00;94041.94;;;5.03;100.00
11329;BME280;5719;42.714;23.732;2024-01-06T08:59:27;94046.53;;;5.12;100.00
11329;BME280;5719;42.714;23.732;2024-01-06T09:01:54;94037.13;;;5.40;100.00
11329;BME280;5719;42.714;23.732;2024-01-06T09:04:22;94034.03;;;5.64;100.00
11329;BME280;5719;42.714;23.732;2024-01-06T09:06:49;94036.81;;;5.89;100.00
11329;BME280;5719;42.714;23.732;2024-01-06T09:09:16;94028.84;;;5.94;100.00
11329;BME280;5719;42.714;23.732;2024-01-06T09:11:43;94024.34;;;5.97;100.00
11329;BME280;5719;42.714;23.732;2024-01-06T09:14:13;94029.81;;;5.91;100.00
11329;BME280;5719;42.714;23.732;2024-01-06T09:16:39;94026.59;;;6.02;100.00
11329;BME280;5719;42.714;23.732;2024-01-06T09:19:06;94031.56;;;5.90;100.00
11329;BME280;5719;42.714;23.732;2024-01-06T09:21:34;94035.47;;;6.10;100.00
11329;BME280;5719;42.714;23.732;2024-01-06T09:24:01;94016.81;;;6.08;100.00
11329;BME280;5719;42.714;23.732;2024-01-06T09:26:31;94015.78;;;6.37;100.00
11329;BME280;5719;42.714;23.732;2024-01-06T09:28:59;94011.75;;;6.60;100.00
11329;BME280;5719;42.714;23.732;2024-01-06T09:31:27;94007.31;;;6.89;100.00
11329;BME280;5719;42.714;23.732;2024-01-06T09:33:54;94004.78;;;7.02;100.00
11329;BME280;5719;42.714;23.732;2024-01-06T09:36:22;94007.06;;;7.31;100.00
11329;BME280;5719;42.714;23.732;2024-01-06T09:38:48;94000.69;;;7.50;97.50
11329;BME280;5719;42.714;23.732;2024-01-06T09:41:15;94004.09;;;7.50;95.00
11329;BME280;5719;42.714;23.732;2024-01-06T09:43:42;93997.09;;;7.65;95.42
11329;BME280;5719;42.714;23.732;2024-01-06T09:46:14;93988.50;;;7.77;95.29
11329;BME280;5719;42.714;23.732;2024-01-06T09:48:43;93978.13;;;7.78;93.83
11329;BME280;5719;42.714;23.732;2024-01-06T09:51:12;93970.38;;;7.91;95.18
11329;BME280;5719;42.714;23.732;2024-01-06T09:53:46;93973.53;;;7.95;95.77
11329;BME280;5719;42.714;23.732;2024-01-06T09:56:15;93966.63;;;7.71;95.62
11329;BME280;5719;42.714;23.732;2024-01-06T09:58:43;93963.59;;;7.90;95.74
11329;BME280;5719;42.714;23.732;2024-01-06T10:01:11;93951.88;;;8.10;95.66
11329;BME280;5719;42.714;23.732;2024-01-06T10:03:39;93957.81;;;7.50;99.93
11329;BME280;5719;42.714;23.732;2024-01-06T10:06:08;93951.41;;;7.18;100.00
11329;BME280;5719;42.714;23.732;2024-01-06T10:08:35;93945.03;;;7.49;100.00
11329;BME280;5719;42.714;23.732;2024-01-06T10:11:02;93940.75;;;7.73;100.00
11329;BME280;5719;42.714;23.732;2024-01-06T10:13:29;93934.41;;;8.02;100.00
11329;BME280;5719;42.714;23.732;2024-01-06T10:15:56;93929.59;;;8.34;99.60
11329;BME280;5719;42.714;23.732;2024-01-06T10:18:24;93922.00;;;8.78;91.77
11329;BME280;5719;42.714;23.732;2024-01-06T10:20:52;93925.56;;;9.11;91.21
11329;BME280;5719;42.714;23.732;2024-01-06T10:23:22;93923.84;;;9.33;90.33
11329;BME280;5719;42.714;23.732;2024-01-06T10:25:51;93929.94;;;9.10;90.18
11329;BME280;5719;42.714;23.732;2024-01-06T10:28:18;93918.94;;;9.30;89.67
11329;BME280;5719;42.714;23.732;2024-01-06T10:30:45;93911.19;;;9.64;87.44
11329;BME280;5719;42.714;23.732;2024-01-06T10:33:12;93901.06;;;9.94;86.73
11329;BME280;5719;42.714;23.732;2024-01-06T10:35:39;93901.16;;;10.15;83.82
11329;BME280;5719;42.714;23.732;2024-01-06T10:38:07;93896.59;;;10.39;79.14
11329;BME280;5719;42.714;23.732;2024-01-06T10:40:35;93897.59;;;10.59;76.47
11329;BME280;5719;42.714;23.732;2024-01-06T10:43:03;93899.03;;;10.72;73.86
11329;BME280;5719;42.714;23.732;2024-01-06T10:45:30;93895.72;;;10.81;73.98
11329;BME280;5719;42.714;23.732;2024-01-06T10:47:57;93891.53;;;10.90;72.21
11329;BME280;5719;42.714;23.732;2024-01-06T10:50:26;93893.50;;;10.98;72.87
11329;BME280;5719;42.714;23.732;2024-01-06T10:52:55;93885.00;;;11.07;72.09
11329;BME280;5719;42.714;23.732;2024-01-06T10:55:23;93884.34;;;11.14;70.45
11329;BME280;5719;42.714;23.732;2024-01-06T10:57:54;93881.63;;;11.16;70.78
11329;BME280;5719;42.714;23.732;2024-01-06T11:00:22;93879.56;;;11.10;70.61
11329;BME280;5719;42.714;23.732;2024-01-06T11:02:49;93865.28;;;11.15;70.13
11329;BME280;5719;42.714;23.732;2024-01-06T11:05:19;93867.22;;;11.23;69.87
11329;BME280;5719;42.714;23.732;2024-01-06T11:07:46;93859.34;;;11.24;70.09
11329;BME280;5719;42.714;23.732;2024-01-06T11:10:18;93858.97;;;11.29;69.57
11329;BME280;5719;42.714;23.732;2024-01-06T11:12:45;93859.09;;;11.27;69.91
11329;BME280;5719;42.714;23.732;2024-01-06T11:25:57;93843.25;;;11.91;66.58
11329;BME280;5719;42.714;23.732;2024-01-06T11:28:24;93840.06;;;11.78;66.96
11329;BME280;5719;42.714;23.732;2024-01-06T11:31:05;93838.22;;;11.59;68.02
11329;BME280;5719;42.714;23.732;2024-01-06T11:33:32;93833.13;;;11.48;67.55
11329;BME280;5719;42.714;23.732;2024-01-06T11:36:01;93833.50;;;11.34;66.98
11329;BME280;5719;42.714;23.732;2024-01-06T11:38:28;93828.78;;;11.18;68.05
11329;BME280;5719;42.714;23.732;2024-01-06T11:41:01;93827.91;;;11.29;67.93
11329;BME280;5719;42.714;23.732;2024-01-06T11:43:27;93823.41;;;11.31;68.27
11329;BME280;5719;42.714;23.732;2024-01-06T11:45:58;93812.53;;;11.37;69.19
11329;BME280;5719;42.714;23.732;2024-01-06T11:48:29;93813.09;;;11.41;68.60
11329;BME280;5719;42.714;23.732;2024-01-06T11:50:57;93802.91;;;11.49;68.64
11329;BME280;5719;42.714;23.732;2024-01-06T11:53:26;93805.25;;;11.61;69.10
11329;BME280;5719;42.714;23.732;2024-01-06T11:55:53;93792.38;;;11.80;69.56
11329;BME280;5719;42.714;23.732;2024-01-06T11:58:21;93786.53;;;12.07;69.36
11329;BME280;5719;42.714;23.732;2024-01-06T12:00:55;93779.16;;;12.41;65.75
11329;BME280;5719;42.714;23.732;2024-01-06T12:03:22;93783.13;;;13.11;64.07
11329;BME280;5719;42.714;23.732;2024-01-06T12:05:59;93770.16;;;13.65;61.34
11329;BME280;5719;42.714;23.732;2024-01-06T12:08:26;93769.06;;;14.21;59.71
11329;BME280;5719;42.714;23.732;2024-01-06T12:11:02;93754.19;;;14.66;56.98
11329;BME280;5719;42.714;23.732;2024-01-06T12:13:30;93747.91;;;14.77;53.83
11329;BME280;5719;42.714;23.732;2024-01-06T12:15:57;93748.47;;;14.89;55.23
11329;BME280;5719;42.714;23.732;2024-01-06T12:18:25;93751.22;;;14.87;54.21
11329;BME280;5719;42.714;23.732;2024-01-06T12:20:52;93755.22;;;14.99;53.98
11329;BME280;5719;42.714;23.732;2024-01-06T12:23:25;93751.41;;;15.19;55.15
11329;BME280;5719;42.714;23.732;2024-01-06T12:25:53;93750.97;;;14.98;56.12
11329;BME280;5719;42.714;23.732;2024-01-06T12:28:20;93757.34;;;15.30;54.83
11329;BME280;5719;42.714;23.732;2024-01-06T12:30:48;93746.13;;;15.37;52.64
11329;BME280;5719;42.714;23.732;2024-01-06T12:33:15;93741.19;;;15.26;53.10
11329;BME280;5719;42.714;23.732;2024-01-06T12:35:42;93745.59;;;15.26;53.43
11329;BME280;5719;42.714;23.732;2024-01-06T12:38:09;93732.28;;;15.03;54.06
11329;BME280;5719;42.714;23.732;2024-01-06T12:40:36;93718.53;;;14.59;53.81
11329;BME280;5719;42.714;23.732;2024-01-06T12:43:03;93730.66;;;14.33;55.44
11329;BME280;5719;42.714;23.732;2024-01-06T12:45:30;93726.00;;;14.01;56.40
11329;BME280;5719;42.714;23.732;2024-01-06T12:47:58;93738.63;;;13.96;56.93
11329;BME280;5719;42.714;23.732;2024-01-06T12:50:25;93737.53;;;13.98;57.29
11329;BME280;5719;42.714;23.732;2024-01-06T12:52:52;93743.25;;;14.02;58.02
11329;BME280;5719;42.714;23.732;2024-01-06T12:55:19;93742.00;;;14.06;57.50
11329;BME280;5719;42.714;23.732;2024-01-06T12:57:46;93730.59;;;13.89;56.25
11329;BME280;5719;42.714;23.732;2024-01-06T13:00:13;93737.66;;;13.79;56.82
11329;BME280;5719;42.714;23.732;2024-01-06T13:02:41;93726.56;;;13.59;59.65
11329;BME280;5719;42.714;23.732;2024-01-06T13:05:10;93734.16;;;13.70;59.26
11329;BME280;5719;42.714;23.732;2024-01-06T13:07:38;93706.63;;;13.77;58.42
11329;BME280;5719;42.714;23.732;2024-01-06T13:10:06;93711.66;;;14.14;56.12
11329;BME280;5719;42.714;23.732;2024-01-06T13:12:33;93716.31;;;14.29;55.36
11329;BME280;5719;42.714;23.732;2024-01-06T13:15:11;93718.91;;;14.46;55.37